createdAt,value
2023-02-27T00:00:53.669Z,54.34
2023-02-27T00:03:40.751Z,55.36
2023-02-27T00:06:27.888Z,54.97
2023-02-27T00:09:13.778Z,54.15
2023-02-27T00:12:04.018Z,54.58
2023-02-27T00:14:51.498Z,54.44
2023-02-27T00:17:38.775Z,54.35
2023-02-27T00:20:24.847Z,53.91
2023-02-27T00:23:10.972Z,54.74
2023-02-27T00:25:57.602Z,55.38
2023-02-27T00:28:43.232Z,55.21
2023-02-27T00:31:29.471Z,55.85
2023-02-27T00:34:15.800Z,55.89
2023-02-27T00:37:04.689Z,56.78
2023-02-27T00:39:51.150Z,56.31
2023-02-27T00:42:38.081Z,56.03
2023-02-27T00:45:23.841Z,56.42
2023-02-27T00:48:10.974Z,55.40
2023-02-27T00:50:56.732Z,56.54
2023-02-27T00:53:42.803Z,56.19
2023-02-27T00:56:29.789Z,56.28
2023-02-27T00:59:20.040Z,55.66
2023-02-27T01:02:08.576Z,55.93
2023-02-27T01:04:58.919Z,57.08
2023-02-27T01:07:45.859Z,56.83
2023-02-27T01:10:33.200Z,56.79
2023-02-27T01:13:19.239Z,57.04
2023-02-27T01:16:15.896Z,57.76
2023-02-27T01:19:02.866Z,56.86
2023-02-27T01:21:50.857Z,56.43
2023-02-27T01:24:49.789Z,57.75
2023-02-27T01:27:36.879Z,57.00
2023-02-27T01:30:24.050Z,56.46
2023-02-27T01:33:10.165Z,57.28
2023-02-27T01:36:01.167Z,56.63
2023-02-27T01:38:47.599Z,56.78
2023-02-27T01:41:45.382Z,57.61
2023-02-27T01:44:32.015Z,55.82
2023-02-27T01:47:18.276Z,57.19
2023-02-27T01:50:04.952Z,56.49
2023-02-27T01:52:57.539Z,58.27
2023-02-27T01:55:46.834Z,56.57
2023-02-27T01:58:34.447Z,56.44
2023-02-27T02:01:22.537Z,56.07
2023-02-27T02:04:30.553Z,55.84
2023-02-27T02:07:19.564Z,56.60
2023-02-27T02:10:06.470Z,56.37
2023-02-27T02:13:23.961Z,57.20
2023-02-27T02:16:41.137Z,57.39
2023-02-27T02:19:49.969Z,56.42
2023-02-27T02:23:01.801Z,56.52
2023-02-27T02:25:58.728Z,56.49
2023-02-27T02:29:07.437Z,58.04
2023-02-27T02:31:59.171Z,55.62
2023-02-27T02:35:23.251Z,57.15
2023-02-27T02:38:18.327Z,55.62
2023-02-27T02:41:18.348Z,55.28
2023-02-27T02:44:27.584Z,56.21
2023-02-27T02:47:57.191Z,55.16
2023-02-27T02:51:07.763Z,55.59
2023-02-27T02:54:04.539Z,55.19
2023-02-27T02:56:54.731Z,54.68
2023-02-27T03:00:03.610Z,54.91
2023-02-27T03:02:53.805Z,55.05
2023-02-27T03:05:45.040Z,54.51
2023-02-27T03:08:34.574Z,54.49
2023-02-27T03:11:23.429Z,54.73
2023-02-27T03:14:19.093Z,54.71
2023-02-27T03:17:09.313Z,53.91
2023-02-27T03:20:00.006Z,54.80
2023-02-27T03:22:47.999Z,54.67
2023-02-27T03:25:36.195Z,54.27
2023-02-27T03:28:27.090Z,54.93
2023-02-27T03:31:26.058Z,54.43
2023-02-27T03:34:28.026Z,55.20
2023-02-27T03:37:27.789Z,54.51
2023-02-27T03:40:16.623Z,54.57
2023-02-27T03:43:16.891Z,55.52
2023-02-27T03:46:31.091Z,55.88
2023-02-27T03:49:18.293Z,54.35
2023-02-27T03:52:04.063Z,54.34
2023-02-27T03:55:08.290Z,54.91
2023-02-27T03:57:54.069Z,55.00
2023-02-27T04:00:40.926Z,54.21
2023-02-27T04:03:27.141Z,54.15
2023-02-27T04:06:31.386Z,53.63
2023-02-27T04:09:16.837Z,54.88
2023-02-27T04:12:31.634Z,53.88
2023-02-27T04:15:50.019Z,54.39
2023-02-27T04:19:04.985Z,54.18
2023-02-27T04:22:29.262Z,53.93
2023-02-27T04:25:27.868Z,53.71
2023-02-27T04:28:34.316Z,54.35
2023-02-27T04:31:51.834Z,54.09
2023-02-27T04:34:42.567Z,53.87
2023-02-27T04:37:46.630Z,54.45
2023-02-27T04:41:04.416Z,54.15
2023-02-27T04:43:50.563Z,54.08
2023-02-27T04:46:39.642Z,53.76
2023-02-27T04:49:44.444Z,54.09
2023-02-27T04:52:34.607Z,53.65
2023-02-27T04:55:25.226Z,53.81
2023-02-27T04:58:42.033Z,54.27
2023-02-27T05:01:37.405Z,53.68
2023-02-27T05:04:26.304Z,53.25
2023-02-27T05:07:17.800Z,53.84
2023-02-27T05:10:06.956Z,53.53
2023-02-27T05:13:03.837Z,53.85
2023-02-27T05:15:54.721Z,53.71
2023-02-27T05:18:41.570Z,53.90
2023-02-27T05:21:36.342Z,53.96
2023-02-27T05:24:50.302Z,53.77
2023-02-27T05:27:42.192Z,53.69
2023-02-27T05:30:42.850Z,53.83
2023-02-27T05:33:56.220Z,53.91
2023-02-27T05:36:54.551Z,53.74
2023-02-27T05:39:41.121Z,53.54
2023-02-27T05:42:29.862Z,53.70
2023-02-27T05:45:21.083Z,53.31
2023-02-27T05:48:17.830Z,53.43
2023-02-27T05:51:07.218Z,53.62
2023-02-27T05:54:01.876Z,53.56
2023-02-27T05:56:49.622Z,53.28
2023-02-27T05:59:43.503Z,53.39
2023-02-27T06:02:29.314Z,53.80
2023-02-27T06:05:16.958Z,53.70
2023-02-27T06:08:02.845Z,53.61
2023-02-27T06:10:50.035Z,53.68
2023-02-27T06:13:35.969Z,53.45
2023-02-27T06:16:21.881Z,53.48
2023-02-27T06:19:07.732Z,53.68
2023-02-27T06:21:53.820Z,53.79
2023-02-27T06:24:39.419Z,53.83
2023-02-27T06:27:26.971Z,54.13
2023-02-27T06:30:13.278Z,53.93
2023-02-27T06:33:01.076Z,54.25
2023-02-27T06:35:50.435Z,54.08
2023-02-27T06:38:37.261Z,54.44
2023-02-27T06:41:23.122Z,53.54
2023-02-27T06:44:08.745Z,54.43
2023-02-27T06:47:01.331Z,55.16
2023-02-27T06:49:57.539Z,54.03
2023-02-27T06:52:43.420Z,54.27
2023-02-27T06:55:29.202Z,54.11
2023-02-27T06:58:16.092Z,54.62
2023-02-27T07:01:02.168Z,54.66
2023-02-27T07:03:48.045Z,54.22
2023-02-27T07:07:34.500Z,54.54
2023-02-27T07:09:39.807Z,54.07
2023-02-27T07:12:25.679Z,54.84
2023-02-27T07:15:11.893Z,54.23
2023-02-27T07:17:58.987Z,54.67
2023-02-27T07:20:44.861Z,54.11
2023-02-27T07:23:30.560Z,54.67
2023-02-27T07:26:16.445Z,54.12
2023-02-27T07:29:02.122Z,54.33
2023-02-27T07:31:49.136Z,54.39
2023-02-27T07:34:34.988Z,54.21
2023-02-27T07:37:20.681Z,53.93
2023-02-27T07:40:10.176Z,54.21
2023-02-27T07:42:56.225Z,53.94
2023-02-27T07:45:42.625Z,54.47
2023-02-27T07:48:29.675Z,54.29
2023-02-27T07:51:15.470Z,53.79
2023-02-27T07:54:01.322Z,54.06
2023-02-27T07:56:47.406Z,54.16
2023-02-27T07:59:33.252Z,54.06
2023-02-27T08:02:19.211Z,53.97
2023-02-27T08:05:06.299Z,54.30
2023-02-27T08:07:52.361Z,54.50
2023-02-27T08:10:38.095Z,54.54
2023-02-27T08:13:35.932Z,54.13
2023-02-27T08:16:31.205Z,54.10
2023-02-27T08:19:17.344Z,54.09
2023-02-27T08:22:03.758Z,54.14
2023-02-27T08:24:53.942Z,53.74
2023-02-27T08:27:39.759Z,54.23
2023-02-27T08:30:25.622Z,54.15
2023-02-27T08:33:14.126Z,53.90
2023-02-27T08:35:59.999Z,53.85
2023-02-27T08:38:46.365Z,53.63
2023-02-27T08:41:32.726Z,53.66
2023-02-27T08:44:19.225Z,53.92
2023-02-27T08:47:04.943Z,53.59
2023-02-27T08:49:50.813Z,53.41
2023-02-27T08:52:36.720Z,53.48
2023-02-27T08:55:22.589Z,53.44
2023-02-27T08:58:09.500Z,53.48
2023-02-27T09:00:56.503Z,53.41
2023-02-27T09:03:42.090Z,53.49
2023-02-27T09:06:30.062Z,53.32
2023-02-27T09:09:16.115Z,53.11
2023-02-27T09:12:01.857Z,53.32
2023-02-27T09:14:47.589Z,53.17
2023-02-27T09:17:34.338Z,52.83
2023-02-27T09:20:20.341Z,52.92
2023-02-27T09:23:06.052Z,52.57
2023-02-27T09:25:51.800Z,52.94
2023-02-27T09:28:40.120Z,52.97
2023-02-27T09:31:32.823Z,52.71
2023-02-27T09:34:19.478Z,52.89
2023-02-27T09:37:05.322Z,53.01
2023-02-27T09:39:51.477Z,52.89
2023-02-27T09:42:45.678Z,53.04
2023-02-27T09:45:36.618Z,53.00
2023-02-27T09:48:41.482Z,52.83
2023-02-27T09:51:29.367Z,52.86
2023-02-27T09:54:15.552Z,52.91
2023-02-27T09:57:04.049Z,52.52
2023-02-27T09:59:57.185Z,52.58
2023-02-27T10:02:46.143Z,52.11
2023-02-27T10:05:40.473Z,52.67
2023-02-27T10:08:51.640Z,52.41
2023-02-27T10:12:08.713Z,53.13
2023-02-27T10:15:15.572Z,53.35
2023-02-27T10:18:29.677Z,52.99
2023-02-27T10:21:21.405Z,52.17
2023-02-27T10:24:27.521Z,52.79
2023-02-27T10:27:17.981Z,52.37
2023-02-27T10:30:28.548Z,52.57
2023-02-27T10:33:55.618Z,52.32
2023-02-27T10:36:41.549Z,52.31
2023-02-27T10:39:30.591Z,52.76
2023-02-27T10:42:17.474Z,52.65
2023-02-27T10:45:06.497Z,52.50
2023-02-27T10:47:52.332Z,52.42
2023-02-27T10:50:41.390Z,52.26
2023-02-27T10:53:31.337Z,52.32
2023-02-27T10:56:24.682Z,52.54
2023-02-27T10:59:39.456Z,53.03
2023-02-27T11:02:29.610Z,52.58
2023-02-27T11:05:33.677Z,52.64
2023-02-27T11:08:20.731Z,53.72
2023-02-27T11:11:11.951Z,52.26
2023-02-27T11:14:20.445Z,52.77
2023-02-27T11:17:06.659Z,52.71
2023-02-27T11:19:53.472Z,52.50
2023-02-27T11:22:41.775Z,52.83
2023-02-27T11:25:27.409Z,52.84
2023-02-27T11:28:25.747Z,52.87
2023-02-27T11:31:17.545Z,52.51
2023-02-27T11:34:04.971Z,52.30
2023-02-27T11:36:54.894Z,53.14
2023-02-27T11:39:49.244Z,52.84
2023-02-27T11:42:37.216Z,52.95
2023-02-27T11:46:11.854Z,52.97
2023-02-27T11:48:54.064Z,52.79
2023-02-27T11:51:59.276Z,53.23
2023-02-27T11:54:56.506Z,53.43
2023-02-27T11:57:43.952Z,52.89
2023-02-27T12:00:33.737Z,52.81
2023-02-27T12:03:36.681Z,51.93
2023-02-27T12:06:28.898Z,52.00
2023-02-27T12:09:27.836Z,51.76
2023-02-27T12:12:22.023Z,52.33
2023-02-27T12:15:16.579Z,52.75
2023-02-27T12:18:23.492Z,52.20
2023-02-27T12:21:20.028Z,52.26
2023-02-27T12:24:46.564Z,51.89
2023-02-27T12:27:43.712Z,52.36
2023-02-27T12:30:34.477Z,51.79
2023-02-27T12:33:29.005Z,51.75
2023-02-27T12:36:15.003Z,51.85
2023-02-27T12:39:01.162Z,52.17
2023-02-27T12:42:11.502Z,52.33
2023-02-27T12:45:15.829Z,52.09
2023-02-27T12:48:23.192Z,51.90
2023-02-27T12:51:17.474Z,51.87
2023-02-27T12:54:22.103Z,52.26
2023-02-27T12:57:29.741Z,52.61
2023-02-27T13:00:19.664Z,52.56
2023-02-27T13:03:15.489Z,52.88
2023-02-27T13:06:26.257Z,52.60
2023-02-27T13:09:34.208Z,52.93
2023-02-27T13:12:33.873Z,52.72
2023-02-27T13:15:44.865Z,52.66
2023-02-27T13:18:39.723Z,52.65
2023-02-27T13:21:40.110Z,52.59
2023-02-27T13:24:27.356Z,52.80
2023-02-27T13:27:25.076Z,52.35
2023-02-27T13:30:16.129Z,53.03
2023-02-27T13:33:13.238Z,52.86
2023-02-27T13:36:22.496Z,52.62
2023-02-27T13:39:52.972Z,53.03
2023-02-27T13:42:38.632Z,52.83
2023-02-27T13:45:49.504Z,52.35
2023-02-27T13:48:40.789Z,52.83
2023-02-27T13:51:41.245Z,52.74
2023-02-27T13:54:39.742Z,52.44
2023-02-27T13:57:31.913Z,52.66
2023-02-27T14:00:24.955Z,52.78
2023-02-27T14:03:21.465Z,53.17
2023-02-27T14:06:07.302Z,52.83
2023-02-27T14:09:08.881Z,52.77
2023-02-27T14:12:02.655Z,52.72
2023-02-27T14:14:50.383Z,52.78
2023-02-27T14:17:36.271Z,52.92
2023-02-27T14:20:30.125Z,52.69
2023-02-27T14:23:15.894Z,52.52
2023-02-27T14:26:15.655Z,52.92
2023-02-27T14:29:01.871Z,53.07
2023-02-27T14:31:48.421Z,52.93
2023-02-27T14:34:36.166Z,53.38
2023-02-27T14:37:25.151Z,53.28
2023-02-27T14:40:29.761Z,53.22
2023-02-27T14:43:26.710Z,53.22
2023-02-27T14:46:27.105Z,52.93
2023-02-27T14:49:22.569Z,53.18
2023-02-27T14:52:22.240Z,53.17
2023-02-27T14:55:28.132Z,53.29
2023-02-27T14:58:14.098Z,53.32
2023-02-27T15:01:03.916Z,53.46
2023-02-27T15:04:00.014Z,53.48
2023-02-27T15:06:53.611Z,53.60
2023-02-27T15:09:44.711Z,53.58
2023-02-27T15:12:31.131Z,53.32
2023-02-27T15:15:20.841Z,53.67
2023-02-27T15:18:13.099Z,53.31
2023-02-27T15:20:59.463Z,53.38
2023-02-27T15:23:54.160Z,53.32
2023-02-27T15:26:40.707Z,53.28
2023-02-27T15:29:34.409Z,53.43
2023-02-27T15:32:40.093Z,53.98
2023-02-27T15:35:29.685Z,53.66
2023-02-27T15:38:26.408Z,53.79
2023-02-27T15:41:14.047Z,53.54
2023-02-27T15:44:01.427Z,53.81
2023-02-27T15:46:47.762Z,53.80
2023-02-27T15:49:39.509Z,53.85
2023-02-27T15:52:26.920Z,53.63
2023-02-27T15:55:14.983Z,53.45
2023-02-27T15:58:03.534Z,53.60
2023-02-27T16:00:52.993Z,53.74
2023-02-27T16:03:43.992Z,53.41
2023-02-27T16:06:35.440Z,53.68
2023-02-27T16:09:30.376Z,53.52
2023-02-27T16:12:32.029Z,54.06
2023-02-27T16:15:38.977Z,54.24
2023-02-27T16:18:37.730Z,54.08
2023-02-27T16:21:25.363Z,53.92
2023-02-27T16:24:32.073Z,54.23
2023-02-27T16:27:28.996Z,53.82
2023-02-27T16:30:16.214Z,53.77
2023-02-27T16:33:04.672Z,53.95
2023-02-27T16:35:50.964Z,54.10
2023-02-27T16:38:38.528Z,54.19
2023-02-27T16:41:24.956Z,53.89
2023-02-27T16:44:12.829Z,54.25
2023-02-27T16:47:02.178Z,53.68
2023-02-27T16:49:49.873Z,54.17
2023-02-27T16:52:35.543Z,54.10
2023-02-27T16:55:21.416Z,54.03
2023-02-27T16:58:09.765Z,53.99
2023-02-27T17:00:57.077Z,54.08
2023-02-27T17:03:44.307Z,54.53
2023-02-27T17:06:30.666Z,54.57
2023-02-27T17:09:16.945Z,54.30
2023-02-27T17:12:02.632Z,54.39
2023-02-27T17:14:48.571Z,54.51
2023-02-27T17:17:34.420Z,54.52
2023-02-27T17:20:20.139Z,54.68
2023-02-27T17:23:05.919Z,54.73
2023-02-27T17:25:55.250Z,54.42
2023-02-27T17:28:40.986Z,54.57
2023-02-27T17:31:27.009Z,54.61
2023-02-27T17:34:13.049Z,54.66
2023-02-27T17:37:00.794Z,54.46
2023-02-27T17:39:46.684Z,54.61
2023-02-27T17:42:32.825Z,54.82
2023-02-27T17:45:21.213Z,54.60
2023-02-27T17:48:07.850Z,54.82
2023-02-27T17:50:53.697Z,54.71
2023-02-27T17:53:40.198Z,54.49
2023-02-27T17:56:26.558Z,54.32
2023-02-27T17:59:12.608Z,54.50
2023-02-27T18:01:59.160Z,54.55
2023-02-27T18:04:45.279Z,54.66
2023-02-27T18:07:31.543Z,54.73
2023-02-27T18:10:17.582Z,54.73
2023-02-27T18:13:05.406Z,54.45
2023-02-27T18:15:52.128Z,54.85
2023-02-27T18:18:39.624Z,54.40
2023-02-27T18:21:25.797Z,54.56
2023-02-27T18:24:11.644Z,54.43
2023-02-27T18:26:57.890Z,54.55
2023-02-27T18:29:43.906Z,54.24
2023-02-27T18:32:30.034Z,54.17
2023-02-27T18:35:16.814Z,54.37
2023-02-27T18:38:03.743Z,54.09
2023-02-27T18:40:49.598Z,54.52
2023-02-27T18:43:36.808Z,54.61
2023-02-27T18:46:23.274Z,54.82
2023-02-27T18:49:09.053Z,54.34
2023-02-27T18:51:56.002Z,54.65
2023-02-27T18:54:42.607Z,54.89
2023-02-27T18:57:28.530Z,55.14
2023-02-27T19:00:14.667Z,55.22
2023-02-27T19:03:00.464Z,55.45
2023-02-27T19:05:46.554Z,55.26
2023-02-27T19:08:32.743Z,55.42
2023-02-27T19:11:28.649Z,55.32
2023-02-27T19:14:16.336Z,55.65
2023-02-27T19:17:02.137Z,55.30
2023-02-27T19:19:48.297Z,55.49
2023-02-27T19:22:34.478Z,55.55
2023-02-27T19:25:22.737Z,55.36
2023-02-27T19:28:11.334Z,55.38
2023-02-27T19:30:58.416Z,55.43
2023-02-27T19:33:44.536Z,55.44
2023-02-27T19:36:31.341Z,55.69
2023-02-27T19:39:17.571Z,55.40
2023-02-27T19:42:03.575Z,55.42
2023-02-27T19:44:49.706Z,55.23
2023-02-27T19:47:36.464Z,55.39
2023-02-27T19:50:22.294Z,55.23
2023-02-27T19:53:08.364Z,55.37
2023-02-27T19:56:02.910Z,55.31
2023-02-27T19:58:48.751Z,55.31
2023-02-27T20:01:36.482Z,55.20
2023-02-27T20:04:22.388Z,55.47
2023-02-27T20:07:08.623Z,55.34
2023-02-27T20:09:57.304Z,55.52
2023-02-27T20:12:44.297Z,55.11
2023-02-27T20:15:30.584Z,55.54
2023-02-27T20:18:16.143Z,55.51
2023-02-27T20:21:05.789Z,55.78
2023-02-27T20:23:52.518Z,55.41
2023-02-27T20:26:43.396Z,55.55
2023-02-27T20:29:29.374Z,55.47
2023-02-27T20:32:15.168Z,55.34
2023-02-27T20:35:01.256Z,55.33
2023-02-27T20:37:46.989Z,55.41
2023-02-27T20:40:33.732Z,55.16
2023-02-27T20:43:20.660Z,55.06
2023-02-27T20:46:09.041Z,55.49
2023-02-27T20:49:00.875Z,55.26
2023-02-27T20:51:46.549Z,55.30
2023-02-27T20:54:32.430Z,55.62
2023-02-27T20:57:18.092Z,55.13
2023-02-27T21:00:05.506Z,55.02
2023-02-27T21:02:51.802Z,55.22
2023-02-27T21:05:49.029Z,55.25
2023-02-27T21:08:39.884Z,55.14
2023-02-27T21:11:29.927Z,55.29
2023-02-27T21:14:16.168Z,55.42
2023-02-27T21:17:02.127Z,55.34
2023-02-27T21:19:48.104Z,55.42
2023-02-27T21:22:43.069Z,55.29
2023-02-27T21:25:28.961Z,55.32
2023-02-27T21:28:14.661Z,55.15
2023-02-27T21:31:05.937Z,55.31
2023-02-27T21:33:53.130Z,55.43
2023-02-27T21:36:43.659Z,55.38
2023-02-27T21:39:29.639Z,55.61
2023-02-27T21:42:17.547Z,55.95
2023-02-27T21:45:03.660Z,55.91
2023-02-27T21:47:49.492Z,55.69
2023-02-27T21:50:36.673Z,55.49
2023-02-27T21:53:22.699Z,55.59
2023-02-27T21:56:11.166Z,55.63
2023-02-27T21:59:01.377Z,55.56
2023-02-27T22:01:48.577Z,55.54
2023-02-27T22:04:34.499Z,55.68
2023-02-27T22:07:20.313Z,55.41
2023-02-27T22:10:07.283Z,55.28
2023-02-27T22:12:53.474Z,55.39
2023-02-27T22:15:40.312Z,55.54
2023-02-27T22:18:27.115Z,55.66
2023-02-27T22:21:25.373Z,55.88
2023-02-27T22:24:11.867Z,55.57
2023-02-27T22:26:58.023Z,55.50
2023-02-27T22:29:44.338Z,55.34
2023-02-27T22:32:30.325Z,55.37
2023-02-27T22:35:16.748Z,55.56
2023-02-27T22:38:02.930Z,55.54
2023-02-27T22:40:48.703Z,55.41
2023-02-27T22:43:34.999Z,55.41
2023-02-27T22:46:29.307Z,55.55
2023-02-27T22:49:18.440Z,55.77
2023-02-27T22:52:04.786Z,55.90
2023-02-27T22:54:52.978Z,56.10
2023-02-27T22:57:39.172Z,56.08
2023-02-27T23:00:25.440Z,55.75
2023-02-27T23:03:11.464Z,55.79
2023-02-27T23:05:57.257Z,56.06
2023-02-27T23:08:43.552Z,55.78
2023-02-27T23:11:33.969Z,55.70
2023-02-27T23:14:23.288Z,56.09
2023-02-27T23:17:09.149Z,55.41
2023-02-27T23:19:54.901Z,55.46
2023-02-27T23:22:40.865Z,55.65
2023-02-27T23:25:26.995Z,55.83
2023-02-27T23:28:12.683Z,55.53
2023-02-27T23:30:59.897Z,55.43
2023-02-27T23:33:45.776Z,55.78
2023-02-27T23:36:32.652Z,55.93
2023-02-27T23:39:19.562Z,55.66
2023-02-27T23:42:06.292Z,55.50
2023-02-27T23:45:08.127Z,55.41
2023-02-27T23:47:56.201Z,55.73
2023-02-27T23:50:44.522Z,55.66
2023-02-27T23:53:30.441Z,55.55
2023-02-27T23:56:26.837Z,55.49
2023-02-27T23:59:12.842Z,55.58
